Time;durP1;ratioP1;P1;durP2;ratioP2;P2;SDS_P1;SDS_P2;PMS_P1;PMS_P2;Temp;Humidity;BMP_temperature;BMP_pressure;BME280_temperature;BME280_humidity;BME280_pressure;Samples;Min_cycle;Max_cycle;Signal;HPM_P1;HPM_P2
2023/08/20 00:01:07;;;;;;;12.93;11.73;;;22.80;99.90;;;;;;5020600;28;20996;-78
2023/08/20 00:03:33;;;;;;;13.23;11.83;;;22.80;99.90;;;;;;5029464;28;20446;-78
2023/08/20 00:05:59;;;;;;;11.80;10.80;;;22.80;99.90;;;;;;5029607;28;20479;-77
2023/08/20 00:08:25;;;;;;;13.67;11.87;;;22.70;99.90;;;;;;5025983;28;20449;-77
2023/08/20 00:10:50;;;;;;;13.03;10.90;;;22.70;99.90;;;;;;5027371;28;20453;-77
2023/08/20 00:13:16;;;;;;;12.57;11.27;;;22.70;99.90;;;;;;5027540;28;20561;-78
2023/08/20 00:15:42;;;;;;;11.13;10.20;;;22.70;99.90;;;;;;5021600;28;20259;-77
2023/08/20 00:18:08;;;;;;;12.50;11.50;;;22.50;99.90;;;;;;5021761;28;20563;-77
2023/08/20 00:20:34;;;;;;;11.67;10.47;;;22.80;99.90;;;;;;5043155;28;20221;-78
2023/08/20 00:23:00;;;;;;;15.30;11.90;;;22.80;99.90;;;;;;5025571;28;20950;-77
2023/08/20 00:25:25;;;;;;;12.63;11.30;;;22.80;99.90;;;;;;5031621;28;20480;-78
2023/08/20 00:27:51;;;;;;;12.77;11.60;;;22.90;99.90;;;;;;5039311;28;20445;-78
2023/08/20 00:30:16;;;;;;;11.40;10.50;;;22.90;99.90;;;;;;5029385;28;20190;-77
2023/08/20 00:32:42;;;;;;;13.60;12.20;;;23.00;99.90;;;;;;5027612;28;20193;-77
2023/08/20 00:35:08;;;;;;;12.87;11.73;;;22.90;99.90;;;;;;5022619;28;20194;-78
2023/08/20 00:37:33;;;;;;;12.40;11.20;;;22.90;99.90;;;;;;5028481;28;20241;-77
2023/08/20 00:39:59;;;;;;;12.80;11.50;;;22.90;99.90;;;;;;5026588;28;20208;-77
2023/08/20 00:42:29;;;;;;;12.60;11.50;;;23.00;99.90;;;;;;5026483;28;20186;-77
2023/08/20 00:44:55;;;;;;;12.20;11.27;;;23.00;99.90;;;;;;5034132;28;20206;-77
2023/08/20 00:47:21;;;;;;;12.10;11.00;;;22.90;99.90;;;;;;5029929;28;20473;-77
2023/08/20 00:49:47;;;;;;;12.40;11.40;;;22.90;99.90;;;;;;5031355;28;20197;-78
2023/08/20 00:52:14;;;;;;;13.40;12.37;;;22.80;99.90;;;;;;5034827;28;20527;-78
2023/08/20 00:54:40;;;;;;;12.60;11.40;;;22.80;99.90;;;;;;5027252;28;20468;-77
2023/08/20 00:57:08;;;;;;;12.20;11.20;;;22.80;99.90;;;;;;5023296;28;20504;-77
2023/08/20 00:59:33;;;;;;;13.00;11.80;;;22.80;99.90;;;;;;5022524;28;20930;-77
2023/08/20 01:02:00;;;;;;;12.20;11.10;;;22.80;99.90;;;;;;5023078;28;20536;-77
2023/08/20 01:04:26;;;;;;;12.00;11.00;;;22.80;99.90;;;;;;5023075;28;20259;-77
2023/08/20 01:07:00;;;;;;;11.67;10.67;;;22.70;99.90;;;;;;5029718;28;20539;-77
2023/08/20 01:10:03;;;;;;;12.83;11.63;;;22.70;99.90;;;;;;5028894;28;20196;-78
2023/08/20 01:12:31;;;;;;;11.30;10.20;;;22.60;99.90;;;;;;5031710;28;20817;-77
2023/08/20 01:14:56;;;;;;;13.60;11.17;;;22.50;99.90;;;;;;5034107;28;20485;-76
2023/08/20 01:17:22;;;;;;;11.70;10.70;;;22.50;99.90;;;;;;5031987;28;21261;-78
2023/08/20 01:19:47;;;;;;;12.57;11.47;;;22.40;99.90;;;;;;5024006;28;20208;-77
2023/08/20 01:22:44;;;;;;;12.40;11.30;;;22.40;99.90;;;;;;5019457;28;20648;-77
2023/08/20 01:25:44;;;;;;;12.37;11.07;;;22.40;99.90;;;;;;5027463;28;20287;-77
2023/08/20 01:28:28;;;;;;;12.20;11.03;;;22.30;99.90;;;;;;5023355;28;20532;-77
2023/08/20 01:30:59;;;;;;;13.00;11.70;;;22.30;99.90;;;;;;5024290;28;20954;-77
2023/08/20 01:33:25;;;;;;;12.67;11.57;;;22.30;99.90;;;;;;5025299;28;20444;-77
2023/08/20 01:35:55;;;;;;;11.77;10.77;;;22.30;99.90;;;;;;5021692;28;20458;-78
2023/08/20 01:38:21;;;;;;;12.17;11.17;;;22.30;99.90;;;;;;5021794;28;20476;-78
2023/08/20 01:40:47;;;;;;;13.07;11.87;;;22.30;99.90;;;;;;5027310;28;20445;-77
2023/08/20 01:43:13;;;;;;;12.63;11.53;;;22.30;99.90;;;;;;5026354;28;20436;-78
2023/08/20 01:45:38;;;;;;;12.63;11.47;;;22.20;99.90;;;;;;5028058;28;20482;-78
2023/08/20 01:48:04;;;;;;;12.13;11.03;;;22.30;99.90;;;;;;5023743;28;20195;-77
2023/08/20 01:50:30;;;;;;;12.30;11.10;;;22.20;99.90;;;;;;5023435;28;20560;-77
2023/08/20 01:52:56;;;;;;;13.27;12.00;;;22.20;99.90;;;;;;5023299;28;20499;-77
2023/08/20 01:55:21;;;;;;;13.40;12.20;;;22.30;99.90;;;;;;5029672;28;20972;-77
2023/08/20 01:57:47;;;;;;;12.60;11.50;;;22.20;99.90;;;;;;5062867;22;20190;-81
2023/08/20 02:00:13;;;;;;;13.43;12.23;;;22.20;99.90;;;;;;5057540;28;20672;-76
2023/08/20 02:02:39;;;;;;;12.50;11.50;;;22.20;99.90;;;;;;5068902;28;20177;-76
2023/08/20 02:05:04;;;;;;;12.30;11.30;;;22.20;99.90;;;;;;5066373;28;20483;-76
2023/08/20 02:07:30;;;;;;;12.77;11.77;;;22.20;99.90;;;;;;5068992;28;20201;-77
2023/08/20 02:09:56;;;;;;;13.30;12.10;;;22.30;99.90;;;;;;5043476;28;20700;-76
2023/08/20 02:12:21;;;;;;;12.40;11.30;;;22.30;99.90;;;;;;5050495;28;20207;-75
2023/08/20 02:14:47;;;;;;;13.00;11.67;;;22.20;99.90;;;;;;5048437;28;20186;-76
2023/08/20 02:17:14;;;;;;;12.27;11.27;;;22.20;99.90;;;;;;5048007;28;20205;-78
2023/08/20 02:19:39;;;;;;;12.60;11.50;;;22.10;99.90;;;;;;5050610;28;20628;-76
2023/08/20 02:22:05;;;;;;;13.00;11.93;;;22.10;99.90;;;;;;5049822;28;20452;-79
2023/08/20 02:24:31;;;;;;;13.00;11.70;;;22.10;99.90;;;;;;5047930;28;20683;-76
2023/08/20 02:26:56;;;;;;;12.90;11.67;;;22.10;99.90;;;;;;5048967;28;20208;-76
2023/08/20 02:29:22;;;;;;;13.20;11.60;;;22.10;99.90;;;;;;5049819;28;20243;-76
2023/08/20 02:31:47;;;;;;;12.20;11.10;;;22.10;99.90;;;;;;5049834;28;20276;-80
2023/08/20 02:34:13;;;;;;;11.47;10.47;;;22.10;99.90;;;;;;5047993;28;20195;-76
2023/08/20 02:36:39;;;;;;;13.40;12.20;;;22.10;99.90;;;;;;5055893;28;20219;-76
2023/08/20 02:39:07;;;;;;;13.00;11.90;;;22.10;99.90;;;;;;5048679;28;20177;-76
2023/08/20 02:41:34;;;;;;;13.67;12.33;;;22.10;99.90;;;;;;5050098;28;20174;-77
2023/08/20 02:43:59;;;;;;;13.10;11.30;;;22.00;99.90;;;;;;5044735;28;20524;-76
2023/08/20 02:46:25;;;;;;;13.50;12.40;;;22.30;99.90;;;;;;5052033;28;20475;-76
2023/08/20 02:48:51;;;;;;;12.83;11.83;;;21.90;99.90;;;;;;5048615;28;20240;-79
2023/08/20 02:51:16;;;;;;;13.30;12.07;;;21.90;99.90;;;;;;5047306;28;20196;-77
2023/08/20 02:53:42;;;;;;;12.40;11.50;;;21.90;99.90;;;;;;5050092;28;20645;-76
2023/08/20 02:56:07;;;;;;;13.23;11.97;;;21.90;99.90;;;;;;5047947;28;20237;-79
2023/08/20 02:58:33;;;;;;;13.57;12.47;;;21.80;99.90;;;;;;5047359;28;20220;-78
2023/08/20 03:00:58;;;;;;;13.47;12.07;;;21.70;99.90;;;;;;5047993;28;20189;-77
2023/08/20 03:03:24;;;;;;;13.57;11.70;;;21.70;99.90;;;;;;5048151;28;20243;-76
2023/08/20 03:05:50;;;;;;;11.87;10.83;;;21.80;99.90;;;;;;5047551;28;20229;-78
2023/08/20 03:08:15;;;;;;;14.47;13.17;;;21.80;99.90;;;;;;5046140;28;20189;-76
2023/08/20 03:10:41;;;;;;;12.60;11.60;;;21.80;99.90;;;;;;5050500;28;20193;-76
2023/08/20 03:13:07;;;;;;;13.13;11.87;;;21.70;99.90;;;;;;5048346;28;20186;-77
2023/08/20 03:15:32;;;;;;;12.97;11.90;;;21.70;99.90;;;;;;5046249;28;20646;-79
2023/08/20 03:17:58;;;;;;;14.53;13.10;;;21.60;99.90;;;;;;5049261;28;20196;-76
2023/08/20 03:20:23;;;;;;;13.60;12.20;;;21.60;99.90;;;;;;5047374;28;20199;-77
2023/08/20 03:22:49;;;;;;;14.07;12.77;;;21.50;99.90;;;;;;5047840;28;20223;-77
2023/08/20 03:25:15;;;;;;;12.93;11.83;;;21.60;99.90;;;;;;5048609;28;20570;-76
2023/08/20 03:27:41;;;;;;;13.60;12.50;;;21.50;99.90;;;;;;5046801;28;20693;-76
2023/08/20 03:30:07;;;;;;;13.60;12.30;;;21.50;99.90;;;;;;5044714;28;20185;-78
2023/08/20 03:32:33;;;;;;;13.47;12.27;;;21.50;99.90;;;;;;5047235;28;20909;-76
2023/08/20 03:34:59;;;;;;;12.93;11.83;;;21.40;99.90;;;;;;5047687;28;20479;-75
2023/08/20 03:37:27;;;;;;;14.00;12.90;;;21.40;99.90;;;;;;5047181;28;20210;-76
2023/08/20 03:39:53;;;;;;;14.63;13.23;;;21.80;99.90;;;;;;5040859;28;20306;-77
2023/08/20 03:42:19;;;;;;;13.03;11.93;;;21.40;99.90;;;;;;5046110;28;20538;-76
2023/08/20 03:44:44;;;;;;;13.17;12.17;;;21.90;99.90;;;;;;5047643;28;20251;-78
2023/08/20 03:47:10;;;;;;;12.90;11.80;;;21.40;99.90;;;;;;5047399;28;20228;-76
2023/08/20 03:49:36;;;;;;;13.53;12.47;;;21.40;99.90;;;;;;5048661;28;20682;-76
2023/08/20 03:52:02;;;;;;;14.03;12.80;;;21.50;99.90;;;;;;5046899;28;20185;-76
2023/08/20 03:54:30;;;;;;;13.50;12.30;;;21.50;99.90;;;;;;5046349;28;20448;-77
2023/08/20 03:56:56;;;;;;;14.67;12.53;;;21.50;99.90;;;;;;5062354;28;20213;-77
2023/08/20 03:59:21;;;;;;;14.07;12.63;;;21.50;99.90;;;;;;5048506;28;20508;-80
2023/08/20 04:01:47;;;;;;;13.97;12.67;;;21.40;99.90;;;;;;5048319;28;20448;-76
2023/08/20 04:04:13;;;;;;;12.97;11.77;;;21.40;99.90;;;;;;5050819;28;20545;-75
2023/08/20 04:06:39;;;;;;;13.20;12.00;;;21.40;99.90;;;;;;5053836;28;20682;-76
2023/08/20 04:09:06;;;;;;;12.70;11.47;;;21.30;99.90;;;;;;5052755;28;20181;-76
2023/08/20 04:11:31;;;;;;;12.30;11.30;;;21.30;99.90;;;;;;5058337;28;20435;-71
2023/08/20 04:13:57;;;;;;;13.27;12.17;;;21.40;99.90;;;;;;5049215;28;20574;-73
2023/08/20 04:16:22;;;;;;;12.87;11.77;;;21.40;99.90;;;;;;5057894;28;20205;-72
2023/08/20 04:18:48;;;;;;;12.60;11.50;;;21.50;99.90;;;;;;5052079;28;20185;-72
2023/08/20 04:21:14;;;;;;;12.67;11.67;;;21.40;99.90;;;;;;5052422;28;20189;-71
2023/08/20 04:23:41;;;;;;;14.83;13.43;;;21.30;99.90;;;;;;5049583;28;20715;-67
2023/08/20 04:26:07;;;;;;;13.43;12.33;;;21.30;99.90;;;;;;5052762;28;20227;-73
2023/08/20 04:28:32;;;;;;;13.87;12.60;;;21.40;99.90;;;;;;5047117;28;20834;-71
2023/08/20 04:31:00;;;;;;;13.67;12.47;;;21.10;99.90;;;;;;5051998;28;20438;-72
2023/08/20 04:33:25;;;;;;;13.53;12.33;;;21.60;99.90;;;;;;5051836;28;20178;-72
2023/08/20 04:35:51;;;;;;;12.80;11.80;;;21.70;99.90;;;;;;5047537;28;20461;-70
2023/08/20 04:38:17;;;;;;;13.30;12.03;;;21.60;99.90;;;;;;5049572;28;20189;-72
2023/08/20 04:40:46;;;;;;;13.60;12.50;;;21.50;99.90;;;;;;5047338;28;20177;-71
2023/08/20 04:43:12;;;;;;;13.47;12.30;;;21.40;99.90;;;;;;5048268;28;20884;-71
2023/08/20 04:45:37;;;;;;;13.00;11.80;;;21.40;99.90;;;;;;5049520;28;20566;-73
2023/08/20 04:48:03;;;;;;;13.40;12.00;;;21.30;99.90;;;;;;5038420;28;20182;-72
2023/08/20 04:50:28;;;;;;;14.23;13.00;;;21.20;99.90;;;;;;5050251;28;20531;-71
2023/08/20 04:52:54;;;;;;;13.23;12.17;;;21.20;99.90;;;;;;5048527;28;20260;-71
2023/08/20 04:55:20;;;;;;;13.53;12.40;;;21.20;99.90;;;;;;5045144;28;20186;-71
2023/08/20 04:57:46;;;;;;;13.67;12.47;;;21.10;99.90;;;;;;5048779;28;20441;-72
2023/08/20 05:00:11;;;;;;;14.40;13.10;;;21.10;99.90;;;;;;5049459;28;20182;-71
2023/08/20 05:02:37;;;;;;;14.07;12.87;;;21.10;99.90;;;;;;5049655;28;20192;-73
2023/08/20 05:05:03;;;;;;;13.40;12.30;;;21.10;99.90;;;;;;5050821;28;20474;-72
2023/08/20 05:07:29;;;;;;;12.43;11.43;;;21.20;99.90;;;;;;5049501;28;20574;-72
2023/08/20 05:09:55;;;;;;;13.10;11.93;;;21.20;99.90;;;;;;5048237;28;20443;-71
2023/08/20 05:12:20;;;;;;;12.87;11.77;;;21.30;99.90;;;;;;5048240;28;20188;-70
2023/08/20 05:14:46;;;;;;;13.27;12.20;;;21.30;99.90;;;;;;5046821;28;20186;-72
2023/08/20 05:17:11;;;;;;;12.80;11.63;;;21.90;99.90;;;;;;5051127;28;20221;-71
2023/08/20 05:19:37;;;;;;;13.83;12.73;;;21.60;99.90;;;;;;5047668;28;20300;-71
2023/08/20 05:22:02;;;;;;;12.07;11.03;;;21.70;99.90;;;;;;5046324;28;20182;-71
2023/08/20 05:24:28;;;;;;;12.70;11.70;;;21.90;99.90;;;;;;5048625;28;20189;-71
2023/08/20 05:27:15;;;;;;;13.07;11.87;;;22.10;99.90;;;;;;5049974;28;20205;-70
2023/08/20 05:29:41;;;;;;;12.63;11.63;;;22.20;99.90;;;;;;5048156;28;20198;-70
2023/08/20 05:32:07;;;;;;;15.57;12.23;;;22.20;99.90;;;;;;5049539;28;20456;-71
2023/08/20 05:34:33;;;;;;;12.30;11.30;;;22.30;99.90;;;;;;5047054;28;20447;-71
2023/08/20 05:36:59;;;;;;;12.37;11.13;;;22.30;99.90;;;;;;5047572;28;20463;-70
2023/08/20 05:39:25;;;;;;;12.13;11.13;;;22.40;99.90;;;;;;5049472;28;20181;-71
2023/08/20 05:41:55;;;;;;;12.33;11.23;;;22.40;99.90;;;;;;5047188;28;20459;-70
2023/08/20 05:44:21;;;;;;;12.70;11.50;;;22.50;99.90;;;;;;5048727;28;20467;-71
2023/08/20 05:46:46;;;;;;;11.60;10.70;;;22.70;99.90;;;;;;5047465;28;20460;-71
2023/08/20 05:49:15;;;;;;;13.27;12.00;;;22.80;99.90;;;;;;5046872;28;20539;-71
2023/08/20 05:51:44;;;;;;;12.93;11.43;;;22.90;99.90;;;;;;5047058;28;20215;-71
2023/08/20 05:54:11;;;;;;;12.83;11.80;;;23.00;99.90;;;;;;5047680;28;20442;-71
2023/08/20 05:56:37;;;;;;;13.03;11.97;;;23.10;99.90;;;;;;5047082;28;20535;-70
2023/08/20 05:59:02;;;;;;;12.90;11.80;;;23.20;99.90;;;;;;5042151;28;20971;-71
2023/08/20 06:01:28;;;;;;;12.53;11.47;;;23.30;99.90;;;;;;5048254;28;20448;-70
2023/08/20 06:03:54;;;;;;;11.73;10.73;;;23.10;99.90;;;;;;5042093;28;20612;-73
2023/08/20 06:06:19;;;;;;;12.43;11.43;;;23.40;99.90;;;;;;5047993;28;20259;-72
2023/08/20 06:08:45;;;;;;;12.10;11.07;;;23.60;99.90;;;;;;5049937;28;20183;-75
2023/08/20 06:11:10;;;;;;;12.37;11.47;;;23.80;99.90;;;;;;5052828;28;20242;-74
2023/08/20 06:13:36;;;;;;;11.10;10.20;;;24.00;99.90;;;;;;5044585;28;20956;-72
2023/08/20 06:16:02;;;;;;;12.70;11.60;;;24.30;99.90;;;;;;5050533;28;20229;-68
2023/08/20 06:18:27;;;;;;;12.33;11.30;;;24.40;99.90;;;;;;5050344;28;20204;-67
2023/08/20 06:20:53;;;;;;;12.60;11.60;;;24.50;99.90;;;;;;5048565;28;20482;-67
2023/08/20 06:23:18;;;;;;;12.60;11.60;;;24.80;99.90;;;;;;5053324;28;20192;-67
2023/08/20 06:25:44;;;;;;;12.23;11.23;;;25.00;99.90;;;;;;5048413;28;20218;-67
2023/08/20 06:28:10;;;;;;;12.00;11.00;;;25.10;99.90;;;;;;5046612;28;21934;-65
2023/08/20 06:30:36;;;;;;;11.83;10.93;;;25.40;99.90;;;;;;5046934;28;20192;-65
2023/08/20 06:33:01;;;;;;;11.77;10.80;;;25.60;99.90;;;;;;5046048;28;20189;-65
2023/08/20 06:35:27;;;;;;;11.73;10.63;;;25.80;99.90;;;;;;5046822;28;20486;-66
2023/08/20 06:37:52;;;;;;;11.60;10.70;;;26.00;99.90;;;;;;5046487;28;20220;-66
2023/08/20 06:40:18;;;;;;;12.70;11.57;;;26.10;99.90;;;;;;5044862;28;20205;-66
2023/08/20 06:42:44;;;;;;;11.33;10.20;;;26.20;99.90;;;;;;5044184;28;20185;-66
2023/08/20 06:45:09;;;;;;;12.40;11.40;;;26.40;99.90;;;;;;5045272;28;20695;-66
2023/08/20 06:47:35;;;;;;;12.53;11.40;;;26.30;99.90;;;;;;5043370;28;20610;-68
2023/08/20 06:50:01;;;;;;;14.37;12.90;;;26.30;99.90;;;;;;5044839;28;20436;-66
2023/08/20 06:52:27;;;;;;;12.90;11.70;;;26.40;99.90;;;;;;5046460;28;20190;-66
2023/08/20 06:54:52;;;;;;;12.23;10.70;;;26.60;99.90;;;;;;5046084;28;20544;-66
2023/08/20 06:57:18;;;;;;;11.03;10.10;;;26.80;99.90;;;;;;5046416;28;20209;-66
2023/08/20 06:59:43;;;;;;;11.57;10.57;;;27.00;99.90;;;;;;5044947;28;20608;-65
2023/08/20 07:02:10;;;;;;;11.40;10.40;;;27.00;99.90;;;;;;5046559;28;20295;-65
2023/08/20 07:04:35;;;;;;;13.23;11.93;;;27.20;99.90;;;;;;5045856;28;20641;-67
2023/08/20 07:07:01;;;;;;;13.00;11.80;;;27.20;99.90;;;;;;5047718;28;20493;-67
2023/08/20 07:09:27;;;;;;;13.53;12.23;;;27.20;99.90;;;;;;5045677;28;20194;-67
2023/08/20 07:11:52;;;;;;;12.20;11.13;;;27.80;99.90;;;;;;5045596;28;20185;-67
2023/08/20 07:14:18;;;;;;;10.70;9.90;;;28.80;99.90;;;;;;5044533;28;20271;-67
2023/08/20 07:16:43;;;;;;;12.00;11.00;;;29.60;99.90;;;;;;5045326;28;20220;-67
2023/08/20 07:19:09;;;;;;;10.93;10.13;;;29.50;99.90;;;;;;5045612;28;20657;-67
2023/08/20 07:21:34;;;;;;;10.10;9.40;;;30.40;99.90;;;;;;5047289;28;20539;-66
2023/08/20 07:24:00;;;;;;;11.97;11.07;;;30.70;98.70;;;;;;5046613;28;20195;-67
2023/08/20 07:26:26;;;;;;;13.97;12.50;;;31.20;98.00;;;;;;5046431;28;21372;-67
2023/08/20 07:28:58;;;;;;;11.73;10.73;;;32.70;95.10;;;;;;5047159;28;20444;-67
2023/08/20 07:31:29;;;;;;;11.10;10.30;;;33.20;93.60;;;;;;5047222;28;20189;-68
2023/08/20 07:33:56;;;;;;;11.27;10.17;;;35.00;90.50;;;;;;5048462;28;20807;-68
2023/08/20 07:36:22;;;;;;;10.20;9.40;;;36.00;85.90;;;;;;5048614;28;20976;-67
2023/08/20 07:38:48;;;;;;;12.43;11.33;;;36.90;82.20;;;;;;5042143;28;20814;-67
2023/08/20 07:41:14;;;;;;;11.33;10.30;;;36.00;79.60;;;;;;5046356;28;20493;-67
2023/08/20 07:43:41;;;;;;;11.60;10.70;;;36.80;79.50;;;;;;5049361;28;20872;-67
2023/08/20 07:46:07;;;;;;;11.83;10.97;;;36.80;77.50;;;;;;5046283;28;20471;-68
2023/08/20 07:48:37;;;;;;;10.97;9.93;;;37.20;77.20;;;;;;5046640;28;20496;-68
2023/08/20 07:51:02;;;;;;;11.53;10.53;;;37.60;75.30;;;;;;5045301;28;20504;-68
2023/08/20 07:53:29;;;;;;;12.07;10.80;;;38.20;74.30;;;;;;5045256;28;20523;-68
2023/08/20 07:55:55;;;;;;;11.50;10.70;;;38.30;72.10;;;;;;5043833;28;20298;-68
2023/08/20 07:58:20;;;;;;;12.30;11.10;;;38.50;71.50;;;;;;5064129;23;21244;-87
2023/08/20 08:00:46;;;;;;;10.73;9.67;;;37.10;75.60;;;;;;5047454;28;20539;-87
2023/08/20 08:03:14;;;;;;;11.77;10.87;;;39.20;76.30;;;;;;5069306;28;20240;-88
2023/08/20 08:05:46;;;;;;;10.77;9.97;;;37.90;76.10;;;;;;5085599;28;20201;-88
2023/08/20 08:08:12;;;;;;;11.57;10.77;;;38.60;71.50;;;;;;5066007;28;20463;-88
2023/08/20 08:10:38;;;;;;;10.73;9.83;;;40.20;69.20;;;;;;5065014;28;20862;-89
2023/08/20 08:13:03;;;;;;;11.37;10.40;;;40.70;65.80;;;;;;5067073;28;20194;-89
2023/08/20 08:15:31;;;;;;;11.50;10.70;;;41.20;63.90;;;;;;5068198;28;20244;-89
2023/08/20 08:17:56;;;;;;;12.37;11.37;;;41.60;62.50;;;;;;5059865;28;20641;-89
2023/08/20 08:20:22;;;;;;;11.70;10.80;;;40.90;62.90;;;;;;5052477;28;20451;-89
2023/08/20 08:22:48;;;;;;;11.63;10.77;;;41.60;59.70;;;;;;5053835;28;20208;-89
2023/08/20 08:25:13;;;;;;;11.53;10.50;;;41.60;60.10;;;;;;5045369;28;20213;-89
2023/08/20 08:27:41;;;;;;;11.40;10.53;;;42.00;58.50;;;;;;5044783;28;20505;-89
2023/08/20 08:30:09;;;;;;;12.60;11.60;;;42.30;58.10;;;;;;5049051;28;20208;-90
2023/08/20 08:32:35;;;;;;;12.53;11.70;;;42.00;56.80;;;;;;5053965;28;20463;-90
2023/08/20 08:35:08;;;;;;;11.30;10.40;;;42.10;58.10;;;;;;5046793;28;20460;-90
2023/08/20 08:37:33;;;;;;;13.00;11.90;;;41.90;58.70;;;;;;5042242;28;20205;-90
2023/08/20 08:39:59;;;;;;;11.67;10.77;;;41.80;57.50;;;;;;5048072;28;20870;-90
2023/08/20 08:42:25;;;;;;;12.30;11.20;;;41.80;57.60;;;;;;5047508;28;20654;-90
2023/08/20 08:44:51;;;;;;;11.37;10.53;;;43.00;56.40;;;;;;5046961;28;20201;-90
2023/08/20 08:47:18;;;;;;;11.30;10.47;;;43.80;53.70;;;;;;5049563;28;20563;-90
2023/08/20 08:49:48;;;;;;;11.60;10.70;;;43.90;53.30;;;;;;5054131;28;20446;-90
2023/08/20 08:52:16;;;;;;;11.83;10.83;;;43.70;52.50;;;;;;5051300;28;20443;-90
2023/08/20 08:54:42;;;;;;;12.07;11.10;;;44.00;51.90;;;;;;5050561;28;20519;-90
2023/08/20 08:57:08;;;;;;;11.57;10.47;;;43.90;52.10;;;;;;5050399;28;20471;-90
2023/08/20 08:59:33;;;;;;;11.73;10.80;;;42.30;52.80;;;;;;5050045;28;20226;-90
2023/08/20 09:01:59;;;;;;;12.57;11.67;;;43.40;52.40;;;;;;5051427;28;20247;-90
2023/08/20 09:04:25;;;;;;;11.00;10.20;;;42.60;51.80;;;;;;5050220;28;20185;-90
2023/08/20 09:06:54;;;;;;;12.27;11.27;;;42.50;53.00;;;;;;5050134;28;20588;-90
2023/08/20 09:09:21;;;;;;;12.40;11.40;;;42.30;52.50;;;;;;5052342;28;20924;-90
2023/08/20 09:11:48;;;;;;;10.67;9.97;;;42.80;52.60;;;;;;5051013;28;20483;-90
2023/08/20 09:14:30;;;;;;;11.70;10.90;;;43.40;52.40;;;;;;5046178;28;20463;-90
2023/08/20 09:17:00;;;;;;;13.23;12.30;;;42.40;51.20;;;;;;5052520;28;20672;-90
2023/08/20 09:19:32;;;;;;;13.23;12.20;;;40.70;54.70;;;;;;5050022;28;21090;-90
2023/08/20 09:22:00;;;;;;;12.93;11.63;;;40.70;56.10;;;;;;5048912;28;20596;-90
2023/08/20 09:24:34;;;;;;;12.70;11.77;;;40.70;56.30;;;;;;5049737;28;20451;-90
2023/08/20 09:27:05;;;;;;;13.43;12.53;;;39.40;57.60;;;;;;5049759;28;20999;-90
2023/08/20 09:29:51;;;;;;;13.10;12.20;;;38.50;59.60;;;;;;5064392;28;20532;-89
2023/08/20 09:32:19;;;;;;;13.33;12.33;;;37.10;63.70;;;;;;5050044;28;20991;-89
2023/08/20 09:34:45;;;;;;;12.97;12.07;;;36.10;67.10;;;;;;5051515;28;20800;-90
2023/08/20 09:37:12;;;;;;;13.37;12.30;;;35.90;73.70;;;;;;5047563;28;20460;-89
2023/08/20 09:39:38;;;;;;;12.57;11.67;;;35.90;78.00;;;;;;5051233;28;20443;-89
2023/08/20 09:42:05;;;;;;;14.13;13.03;;;33.60;80.20;;;;;;5053160;28;20440;-89
2023/08/20 09:44:36;;;;;;;12.63;11.60;;;32.90;81.30;;;;;;5047327;28;20654;-89
2023/08/20 09:47:05;;;;;;;11.50;10.53;;;33.50;81.90;;;;;;5062579;28;20598;-89
2023/08/20 09:49:36;;;;;;;12.30;11.10;;;32.80;81.60;;;;;;5049015;28;20436;-89
2023/08/20 09:52:04;;;;;;;13.33;12.23;;;32.70;82.20;;;;;;5065164;28;20952;-89
2023/08/20 09:54:52;;;;;;;13.80;12.60;;;32.60;83.70;;;;;;5049622;28;20447;-89
2023/08/20 09:57:31;;;;;;;13.33;12.17;;;31.60;85.10;;;;;;5049052;28;20470;-89
2023/08/20 09:59:59;;;;;;;13.40;12.20;;;31.50;87.90;;;;;;5049394;28;20546;-89
2023/08/20 10:02:25;;;;;;;12.37;11.23;;;31.40;88.40;;;;;;5049616;28;20453;-89
2023/08/20 10:04:52;;;;;;;11.90;10.80;;;31.20;88.70;;;;;;5049213;28;20457;-89
2023/08/20 10:07:18;;;;;;;12.13;11.13;;;31.30;89.10;;;;;;5048551;28;20457;-89
2023/08/20 10:09:45;;;;;;;11.40;10.50;;;31.60;89.50;;;;;;5052651;28;20484;-89
2023/08/20 10:12:15;;;;;;;12.10;11.10;;;31.50;88.80;;;;;;5057912;28;20439;-89
2023/08/20 10:14:41;;;;;;;11.27;10.37;;;31.50;87.90;;;;;;5048428;28;21013;-89
2023/08/20 10:17:12;;;;;;;11.20;10.30;;;31.50;88.60;;;;;;5049988;28;20455;-90
2023/08/20 10:19:37;;;;;;;10.57;9.70;;;31.60;87.00;;;;;;5047911;28;20527;-89
2023/08/20 10:22:04;;;;;;;12.20;11.13;;;31.90;85.90;;;;;;5049972;28;20525;-90
2023/08/20 10:24:41;;;;;;;11.33;10.53;;;31.70;87.30;;;;;;5048134;28;20192;-89
2023/08/20 10:27:10;;;;;;;10.80;9.90;;;31.70;86.20;;;;;;5048052;28;20980;-89
2023/08/20 10:29:38;;;;;;;10.83;9.90;;;31.70;84.30;;;;;;5047229;28;20432;-90
2023/08/20 10:32:10;;;;;;;10.70;9.80;;;31.80;83.30;;;;;;5048599;28;20436;-90
2023/08/20 10:34:38;;;;;;;11.00;10.10;;;31.80;83.80;;;;;;5046380;28;20435;-90
2023/08/20 10:37:09;;;;;;;10.73;9.93;;;32.10;82.90;;;;;;5044013;28;20466;-89
2023/08/20 10:39:35;;;;;;;10.83;9.80;;;32.20;83.10;;;;;;5041766;28;20435;-90
2023/08/20 10:42:22;;;;;;;12.10;10.93;;;32.10;82.30;;;;;;5047501;28;20461;-90
2023/08/20 10:45:00;;;;;;;11.37;10.30;;;32.30;83.00;;;;;;5040542;28;20189;-90
2023/08/20 10:47:36;;;;;;;12.27;10.53;;;31.80;83.60;;;;;;5062361;28;20471;-91
2023/08/20 10:50:02;;;;;;;12.03;11.10;;;32.00;83.40;;;;;;5041935;28;20435;-90
2023/08/20 10:52:27;;;;;;;11.33;10.43;;;32.10;83.70;;;;;;5046986;28;20519;-90
2023/08/20 10:54:55;;;;;;;11.40;10.50;;;31.90;84.50;;;;;;5050663;28;20531;-90
2023/08/20 10:57:21;;;;;;;11.07;10.27;;;32.00;84.60;;;;;;5044530;28;20209;-90
2023/08/20 10:59:58;;;;;;;12.93;11.93;;;32.30;84.00;;;;;;5047969;28;20861;-90
2023/08/20 11:02:24;;;;;;;11.27;10.37;;;32.60;83.60;;;;;;5043739;28;20454;-90
2023/08/20 11:04:50;;;;;;;11.77;10.87;;;32.30;82.40;;;;;;5048037;28;20442;-90
2023/08/20 11:07:19;;;;;;;11.83;10.93;;;32.40;82.30;;;;;;5049654;28;20463;-90
2023/08/20 11:09:46;;;;;;;11.53;10.50;;;32.50;82.00;;;;;;5056526;28;20531;-90
2023/08/20 11:12:14;;;;;;;10.83;10.00;;;32.80;83.20;;;;;;5050746;28;20799;-90
2023/08/20 11:14:40;;;;;;;15.13;11.10;;;32.70;82.50;;;;;;5063497;28;21003;-90
2023/08/20 11:17:07;;;;;;;10.83;10.03;;;32.60;81.10;;;;;;5046001;28;20466;-90
2023/08/20 11:19:33;;;;;;;11.77;10.23;;;32.80;81.10;;;;;;5046571;28;20266;-90
2023/08/20 11:21:59;;;;;;;11.17;10.07;;;32.60;80.20;;;;;;5046947;28;20512;-90
2023/08/20 11:24:29;;;;;;;10.77;9.87;;;32.50;80.60;;;;;;5046400;28;20235;-90
2023/08/20 11:26:55;;;;;;;10.63;9.77;;;32.60;80.80;;;;;;5048785;28;20467;-90
2023/08/20 11:29:21;;;;;;;10.87;9.87;;;32.40;82.40;;;;;;5061078;28;20503;-90
2023/08/20 11:31:47;;;;;;;10.90;10.10;;;32.50;81.90;;;;;;5046852;28;20514;-90
2023/08/20 11:34:13;;;;;;;11.23;10.10;;;32.80;81.50;;;;;;5047204;28;21039;-90
2023/08/20 11:36:40;;;;;;;9.80;9.10;;;32.50;80.40;;;;;;5046454;28;20463;-90
2023/08/20 11:39:06;;;;;;;10.57;9.67;;;32.50;80.50;;;;;;5063498;28;21157;-90
2023/08/20 11:41:35;;;;;;;9.73;9.03;;;32.40;80.10;;;;;;5037607;28;20456;-88
2023/08/20 11:44:00;;;;;;;10.70;9.73;;;32.10;81.30;;;;;;5044428;28;20436;-89
2023/08/20 11:46:26;;;;;;;9.80;9.10;;;32.50;81.60;;;;;;5053231;23;20506;-74
2023/08/20 11:49:04;;;;;;;10.90;9.80;;;32.40;80.50;;;;;;5050478;28;20648;-74
2023/08/20 11:51:42;;;;;;;10.40;9.70;;;32.60;79.90;;;;;;5051015;28;20634;-74
2023/08/20 11:54:12;;;;;;;10.23;9.50;;;32.70;79.40;;;;;;5044843;28;21014;-74
2023/08/20 11:56:51;;;;;;;9.23;8.63;;;32.80;79.30;;;;;;5046385;28;20471;-74
2023/08/20 11:59:19;;;;;;;9.93;9.20;;;32.90;78.80;;;;;;5042212;28;20522;-71
2023/08/20 12:01:57;;;;;;;10.50;9.50;;;33.10;78.10;;;;;;5046981;28;20951;-71
2023/08/20 12:04:28;;;;;;;9.97;9.17;;;33.20;77.20;;;;;;5046770;28;20483;-67
2023/08/20 12:07:14;;;;;;;9.83;8.93;;;33.70;75.40;;;;;;5043240;28;20488;-68
2023/08/20 12:09:40;;;;;;;10.13;9.30;;;34.00;74.40;;;;;;5044860;28;21045;-68
2023/08/20 12:12:07;;;;;;;9.90;9.20;;;33.90;74.60;;;;;;5046342;28;20686;-68
2023/08/20 12:14:33;;;;;;;10.03;9.23;;;33.70;74.20;;;;;;5045769;28;20453;-68
2023/08/20 12:16:59;;;;;;;9.57;8.87;;;33.60;75.30;;;;;;5047288;28;20477;-68
2023/08/20 12:19:25;;;;;;;10.40;9.60;;;33.60;75.00;;;;;;5046157;28;20539;-68
2023/08/20 12:21:50;;;;;;;10.00;9.10;;;33.70;75.00;;;;;;5050062;28;20193;-68
2023/08/20 12:24:16;;;;;;;10.20;8.60;;;33.60;75.30;;;;;;5049501;28;20201;-68
2023/08/20 12:26:42;;;;;;;9.50;8.73;;;33.60;75.60;;;;;;5048467;28;20308;-68
2023/08/20 12:29:08;;;;;;;9.90;9.00;;;33.20;75.80;;;;;;5044987;28;20451;-67